createdAt,value
2022-11-29T00:01:57.904Z,35.40
2022-11-29T00:04:24.849Z,35.15
2022-11-29T00:06:51.761Z,38.17
2022-11-29T00:09:18.668Z,36.20
2022-11-29T00:11:45.747Z,36.47
2022-11-29T00:14:12.646Z,37.80
2022-11-29T00:16:39.602Z,36.03
2022-11-29T00:19:06.536Z,35.85
2022-11-29T00:21:33.465Z,39.65
2022-11-29T00:24:00.348Z,36.47
2022-11-29T00:26:27.238Z,39.78
2022-11-29T00:28:54.114Z,38.20
2022-11-29T00:31:21.012Z,37.92
2022-11-29T00:33:47.881Z,35.03
2022-11-29T00:36:14.830Z,32.83
2022-11-29T00:38:41.734Z,39.08
2022-11-29T00:41:08.629Z,36.33
2022-11-29T00:43:35.525Z,38.95
2022-11-29T00:46:02.472Z,39.65
2022-11-29T00:48:29.372Z,39.03
2022-11-29T00:50:56.301Z,38.42
2022-11-29T00:53:23.188Z,39.35
2022-11-29T00:55:50.098Z,38.83
2022-11-29T00:58:16.982Z,38.72
2022-11-29T01:00:43.960Z,36.40
2022-11-29T01:03:10.856Z,37.33
2022-11-29T01:05:37.728Z,39.22
2022-11-29T01:08:04.620Z,37.65
2022-11-29T01:10:31.688Z,37.42
2022-11-29T01:12:58.661Z,37.38
2022-11-29T01:15:25.584Z,40.92
2022-11-29T01:17:52.475Z,39.97
2022-11-29T01:20:19.394Z,35.60
2022-11-29T01:22:46.302Z,39.97
2022-11-29T01:25:17.342Z,38.92
2022-11-29T01:27:53.165Z,39.83
2022-11-29T01:30:20.105Z,39.97
2022-11-29T01:32:47.013Z,38.30
2022-11-29T01:35:13.905Z,39.08
2022-11-29T01:37:40.823Z,40.63
2022-11-29T01:40:07.705Z,37.67
2022-11-29T01:42:34.630Z,40.05
2022-11-29T01:45:01.521Z,41.63
2022-11-29T01:47:28.425Z,39.38
2022-11-29T01:49:55.377Z,38.90
2022-11-29T01:52:22.309Z,40.55
2022-11-29T01:54:49.271Z,41.53
2022-11-29T01:57:16.176Z,39.55
2022-11-29T01:59:43.092Z,42.88
2022-11-29T02:02:10.019Z,41.28
2022-11-29T02:04:36.952Z,40.58
2022-11-29T02:07:03.855Z,41.65
2022-11-29T02:09:30.883Z,39.75
2022-11-29T02:11:57.778Z,43.92
2022-11-29T02:14:24.665Z,42.22
2022-11-29T02:16:56.440Z,43.80
2022-11-29T02:19:23.632Z,42.38
2022-11-29T02:21:50.533Z,39.22
2022-11-29T02:24:17.415Z,41.35
2022-11-29T02:26:44.308Z,42.15
2022-11-29T02:29:11.184Z,40.00
2022-11-29T02:31:38.097Z,44.42
2022-11-29T02:34:05.004Z,44.28
2022-11-29T02:36:31.921Z,43.28
2022-11-29T02:38:58.839Z,43.83
2022-11-29T02:41:25.738Z,43.38
2022-11-29T02:43:52.659Z,41.20
2022-11-29T02:46:19.673Z,42.97
2022-11-29T02:48:46.608Z,41.10
2022-11-29T02:51:13.507Z,43.42
2022-11-29T02:53:40.416Z,41.65
2022-11-29T02:56:07.436Z,41.10
2022-11-29T02:58:34.380Z,42.65
2022-11-29T03:01:01.304Z,42.35
2022-11-29T03:03:28.232Z,41.97
2022-11-29T03:05:55.129Z,41.72
2022-11-29T03:08:22.044Z,44.90
2022-11-29T03:10:48.934Z,45.53
2022-11-29T03:13:15.846Z,44.20
2022-11-29T03:15:42.807Z,41.65
2022-11-29T03:18:09.720Z,41.88
2022-11-29T03:20:36.605Z,45.50
2022-11-29T03:23:03.501Z,44.13
2022-11-29T03:25:30.387Z,45.13
2022-11-29T03:27:57.375Z,43.88
2022-11-29T03:30:24.275Z,43.35
2022-11-29T03:32:51.187Z,41.80
2022-11-29T03:35:18.071Z,40.88
2022-11-29T03:37:44.962Z,45.88
2022-11-29T03:40:11.855Z,42.22
2022-11-29T03:42:38.727Z,44.08
2022-11-29T03:45:05.614Z,40.15
2022-11-29T03:47:32.534Z,43.33
2022-11-29T03:49:59.433Z,41.25
2022-11-29T03:52:26.331Z,42.28
2022-11-29T03:54:53.223Z,43.53
2022-11-29T03:57:20.285Z,44.50
2022-11-29T03:59:47.188Z,41.50
2022-11-29T04:02:14.161Z,42.35
2022-11-29T04:04:43.583Z,42.33
2022-11-29T04:07:10.674Z,42.47
2022-11-29T04:09:37.558Z,46.72
2022-11-29T04:12:04.511Z,42.53
2022-11-29T04:14:31.418Z,41.50
2022-11-29T04:16:58.332Z,43.40
2022-11-29T04:19:25.216Z,43.55
2022-11-29T04:21:52.121Z,41.67
2022-11-29T04:24:19.005Z,45.67
2022-11-29T04:26:45.914Z,43.15
2022-11-29T04:29:12.814Z,42.75
2022-11-29T04:31:39.705Z,43.97
2022-11-29T04:34:06.628Z,45.00
2022-11-29T04:36:33.524Z,43.58
2022-11-29T04:39:00.434Z,47.63
2022-11-29T04:41:30.362Z,42.33
2022-11-29T04:43:57.278Z,43.50
2022-11-29T04:46:24.166Z,46.30
2022-11-29T04:48:51.084Z,44.47
2022-11-29T04:51:17.967Z,45.95
2022-11-29T04:53:44.917Z,45.97
2022-11-29T04:56:11.797Z,45.92
2022-11-29T04:58:38.804Z,41.67
2022-11-29T05:01:05.700Z,44.90
2022-11-29T05:03:32.604Z,41.60
2022-11-29T05:05:59.473Z,40.80
2022-11-29T05:08:26.359Z,42.63
2022-11-29T05:10:53.264Z,42.22
2022-11-29T05:13:20.174Z,45.05
2022-11-29T05:15:54.163Z,45.97
2022-11-29T05:18:21.098Z,40.95
2022-11-29T05:20:49.162Z,41.60
2022-11-29T05:23:16.077Z,44.22
2022-11-29T05:25:42.975Z,44.80
2022-11-29T05:28:10.464Z,45.63
2022-11-29T05:30:37.497Z,44.13
2022-11-29T05:33:04.418Z,41.85
2022-11-29T05:35:31.304Z,44.90
2022-11-29T05:37:58.222Z,43.63
2022-11-29T05:40:26.229Z,45.53
2022-11-29T05:42:53.138Z,42.47
2022-11-29T05:45:20.028Z,48.08
2022-11-29T05:47:46.957Z,43.78
2022-11-29T05:50:13.866Z,42.17
2022-11-29T05:52:40.772Z,44.75
2022-11-29T05:55:07.687Z,48.92
2022-11-29T05:57:34.587Z,43.20
2022-11-29T06:00:01.686Z,42.72
2022-11-29T06:02:28.628Z,44.92
2022-11-29T06:04:55.567Z,45.15
2022-11-29T06:07:22.462Z,45.28
2022-11-29T06:09:49.427Z,47.35
2022-11-29T06:12:20.829Z,43.70
2022-11-29T06:14:48.284Z,41.30
2022-11-29T06:17:15.180Z,43.92
2022-11-29T06:19:42.633Z,47.08
2022-11-29T06:22:09.518Z,46.03
2022-11-29T06:24:36.426Z,47.75
2022-11-29T06:27:03.305Z,43.80
2022-11-29T06:29:30.203Z,45.30
2022-11-29T06:31:57.116Z,50.60
2022-11-29T06:34:29.121Z,48.42
2022-11-29T06:36:57.495Z,44.45
2022-11-29T06:39:24.393Z,48.78
2022-11-29T06:41:51.272Z,47.55
2022-11-29T06:44:18.171Z,45.33
2022-11-29T06:46:45.108Z,41.40
2022-11-29T06:49:12.088Z,49.70
2022-11-29T06:51:39.090Z,48.15
2022-11-29T06:54:05.983Z,46.58
2022-11-29T06:56:32.881Z,46.65
2022-11-29T06:59:02.204Z,50.65
2022-11-29T07:01:29.137Z,46.67
2022-11-29T07:03:56.054Z,50.58
2022-11-29T07:06:22.934Z,45.22
2022-11-29T07:08:49.821Z,48.47
2022-11-29T07:11:16.778Z,41.13
2022-11-29T07:13:43.730Z,49.55
2022-11-29T07:16:10.626Z,45.42
2022-11-29T07:18:37.543Z,46.25
2022-11-29T07:21:04.426Z,45.72
2022-11-29T07:23:31.481Z,45.55
2022-11-29T07:25:58.360Z,49.42
2022-11-29T07:28:25.271Z,47.95
2022-11-29T07:30:52.180Z,46.80
2022-11-29T07:33:19.079Z,44.53
2022-11-29T07:35:45.967Z,48.25
2022-11-29T07:38:12.874Z,46.40
2022-11-29T07:40:39.760Z,52.20
2022-11-29T07:43:06.678Z,47.30
2022-11-29T07:45:33.587Z,46.88
2022-11-29T07:48:00.485Z,44.72
2022-11-29T07:50:27.425Z,44.83
2022-11-29T07:52:54.365Z,47.60
2022-11-29T07:55:21.278Z,46.83
2022-11-29T07:57:48.153Z,44.38
2022-11-29T08:00:15.049Z,48.75
2022-11-29T08:02:42.025Z,47.80
2022-11-29T08:05:09.053Z,47.97
2022-11-29T08:07:35.989Z,49.80
2022-11-29T08:10:03.135Z,44.15
2022-11-29T08:12:30.017Z,46.00
2022-11-29T08:14:57.603Z,45.55
2022-11-29T08:17:24.514Z,47.53
2022-11-29T08:19:51.419Z,46.97
2022-11-29T08:22:18.307Z,47.10
2022-11-29T08:24:45.383Z,44.65
2022-11-29T08:27:12.437Z,48.83
2022-11-29T08:29:39.344Z,48.85
2022-11-29T08:32:06.280Z,45.88
2022-11-29T08:34:33.260Z,48.35
2022-11-29T08:37:00.205Z,45.60
2022-11-29T08:39:27.105Z,48.90
2022-11-29T08:41:53.994Z,47.20
2022-11-29T08:44:20.921Z,47.75
2022-11-29T08:46:47.812Z,50.33
2022-11-29T08:49:14.714Z,50.97
2022-11-29T08:51:41.641Z,47.42
2022-11-29T08:54:08.552Z,49.47
2022-11-29T08:59:22.311Z,50.42
2022-11-29T09:01:49.265Z,47.03
2022-11-29T09:04:16.242Z,49.22
2022-11-29T09:06:43.171Z,47.80
2022-11-29T09:09:10.076Z,50.88
2022-11-29T09:11:36.957Z,51.30
2022-11-29T09:14:03.866Z,47.83
2022-11-29T09:16:30.798Z,48.35
2022-11-29T09:18:57.723Z,50.17
2022-11-29T09:21:24.608Z,54.50
2022-11-29T09:23:51.506Z,52.30
2022-11-29T09:26:18.406Z,50.00
2022-11-29T09:28:45.305Z,49.42
2022-11-29T09:31:12.175Z,53.50
2022-11-29T09:33:39.077Z,50.00
2022-11-29T09:36:05.995Z,50.38
2022-11-29T09:38:32.883Z,50.33
2022-11-29T09:40:59.774Z,54.25
2022-11-29T09:43:26.674Z,54.70
2022-11-29T09:45:53.618Z,57.05
2022-11-29T09:48:20.511Z,62.80
2022-11-29T09:50:47.484Z,55.85
2022-11-29T09:53:14.377Z,53.65
2022-11-29T09:55:41.430Z,54.22
2022-11-29T09:58:08.340Z,54.58
2022-11-29T10:00:35.252Z,51.67
2022-11-29T10:03:02.147Z,54.72
2022-11-29T10:05:29.083Z,50.10
2022-11-29T10:07:56.027Z,52.22
2022-11-29T10:10:23.002Z,55.13
2022-11-29T10:12:49.921Z,51.50
2022-11-29T10:15:16.847Z,50.42
2022-11-29T10:17:43.737Z,49.50
2022-11-29T10:20:10.651Z,51.30
2022-11-29T10:22:37.541Z,52.75
2022-11-29T10:25:04.477Z,54.97
2022-11-29T10:27:31.372Z,51.13
2022-11-29T10:29:58.379Z,52.33
2022-11-29T10:32:25.295Z,52.75
2022-11-29T10:34:52.196Z,52.95
2022-11-29T10:37:19.086Z,50.78
2022-11-29T10:39:46.002Z,56.55
2022-11-29T10:42:12.888Z,50.08
2022-11-29T10:44:39.803Z,52.03
2022-11-29T10:47:10.785Z,47.78
2022-11-29T10:49:38.041Z,53.85
2022-11-29T10:52:04.912Z,50.83
2022-11-29T10:54:31.811Z,54.30
2022-11-29T10:56:58.684Z,49.90
2022-11-29T10:59:27.364Z,54.97
2022-11-29T11:01:56.963Z,50.42
2022-11-29T11:04:23.893Z,50.92
2022-11-29T11:06:50.827Z,48.72
2022-11-29T11:09:17.693Z,53.05
2022-11-29T11:11:44.586Z,53.00
2022-11-29T11:14:11.480Z,50.95
2022-11-29T11:16:38.440Z,55.72
2022-11-29T11:19:05.390Z,53.25
2022-11-29T11:21:32.304Z,52.42
2022-11-29T11:23:59.211Z,51.10
2022-11-29T11:26:26.147Z,49.65
2022-11-29T11:28:53.063Z,53.13
2022-11-29T11:31:20.040Z,49.67
2022-11-29T11:33:46.990Z,55.03
2022-11-29T11:36:13.897Z,48.92
2022-11-29T11:38:40.814Z,52.28
2022-11-29T11:41:07.730Z,48.25
2022-11-29T11:43:34.616Z,55.40
2022-11-29T11:46:01.582Z,46.65
2022-11-29T11:48:31.469Z,51.08
2022-11-29T11:50:58.400Z,53.85
2022-11-29T11:53:25.322Z,51.38
2022-11-29T11:55:52.243Z,52.08
2022-11-29T11:58:19.153Z,51.35
2022-11-29T12:03:32.983Z,51.53
2022-11-29T12:05:59.924Z,51.83
2022-11-29T12:08:26.867Z,51.63
2022-11-29T12:10:53.815Z,53.28
2022-11-29T12:13:20.910Z,55.80
2022-11-29T12:15:47.897Z,55.22
2022-11-29T12:18:14.850Z,52.35
2022-11-29T12:20:41.739Z,53.92
2022-11-29T12:23:08.645Z,50.85
2022-11-29T12:25:35.587Z,49.15
2022-11-29T12:28:02.486Z,54.17
2022-11-29T12:30:29.450Z,56.63
2022-11-29T12:32:56.372Z,51.13
2022-11-29T12:35:23.298Z,50.58
2022-11-29T12:37:50.218Z,56.90
2022-11-29T12:40:17.151Z,52.53
2022-11-29T12:42:44.079Z,54.58
2022-11-29T12:45:11.005Z,53.72
2022-11-29T12:47:38.053Z,52.58
2022-11-29T12:50:05.151Z,51.85
2022-11-29T12:52:32.074Z,55.08
2022-11-29T12:54:58.976Z,53.58
2022-11-29T12:57:25.874Z,56.40
2022-11-29T12:59:52.778Z,54.13
2022-11-29T13:02:19.697Z,53.00
2022-11-29T13:04:46.770Z,51.90
2022-11-29T13:07:13.896Z,56.22
2022-11-29T13:09:40.778Z,51.63
2022-11-29T13:12:07.678Z,56.75
2022-11-29T13:14:43.332Z,56.22
2022-11-29T13:17:10.877Z,54.47
2022-11-29T13:19:37.738Z,56.60
2022-11-29T13:22:04.647Z,54.33
2022-11-29T13:24:31.543Z,54.50
2022-11-29T13:26:58.478Z,56.65
2022-11-29T13:29:28.414Z,60.50
2022-11-29T13:31:55.453Z,52.70
2022-11-29T13:34:22.347Z,54.55
2022-11-29T13:36:49.238Z,51.83
2022-11-29T13:39:16.373Z,52.65
2022-11-29T13:41:43.325Z,56.47
2022-11-29T13:44:10.238Z,54.38
2022-11-29T13:46:37.263Z,55.83
2022-11-29T13:49:04.200Z,55.47
2022-11-29T13:51:31.097Z,55.28
2022-11-29T13:53:57.969Z,57.25
2022-11-29T13:56:24.880Z,57.97
2022-11-29T13:58:51.761Z,54.65
2022-11-29T14:01:18.693Z,53.65
2022-11-29T14:03:45.617Z,56.80
2022-11-29T14:06:12.504Z,54.88
2022-11-29T14:09:10.226Z,54.17
2022-11-29T14:11:26.272Z,56.03
2022-11-29T14:13:53.147Z,55.65
2022-11-29T14:16:20.100Z,58.05
2022-11-29T14:18:46.992Z,54.78
2022-11-29T14:21:13.899Z,58.13
2022-11-29T14:23:40.794Z,59.10
2022-11-29T14:26:07.780Z,60.25
2022-11-29T14:28:34.663Z,56.38
2022-11-29T14:31:01.959Z,58.95
2022-11-29T14:33:29.281Z,59.30
2022-11-29T14:35:56.327Z,57.90
2022-11-29T14:38:29.202Z,56.03
2022-11-29T14:40:57.806Z,54.60
2022-11-29T14:43:24.703Z,64.68
2022-11-29T14:45:51.598Z,62.72
2022-11-29T14:48:18.523Z,60.13
2022-11-29T14:50:45.430Z,57.65
2022-11-29T14:53:12.356Z,56.50
2022-11-29T14:55:39.268Z,61.35
2022-11-29T14:58:06.386Z,55.67
2022-11-29T15:00:33.340Z,59.38
2022-11-29T15:03:00.252Z,57.10
2022-11-29T15:05:27.138Z,61.63
2022-11-29T15:07:54.189Z,52.15
2022-11-29T15:10:21.181Z,46.50
2022-11-29T15:12:48.104Z,56.72
2022-11-29T15:15:14.995Z,59.20
2022-11-29T15:17:41.939Z,60.97
2022-11-29T15:20:08.846Z,62.78
2022-11-29T15:22:35.946Z,63.10
2022-11-29T15:25:02.869Z,63.30
2022-11-29T15:27:29.776Z,60.67
2022-11-29T15:29:56.715Z,64.93
2022-11-29T15:32:23.625Z,66.85
2022-11-29T15:34:50.538Z,55.13
2022-11-29T15:37:17.441Z,63.72
2022-11-29T15:39:44.369Z,62.45
2022-11-29T15:42:11.286Z,56.95
2022-11-29T15:44:38.379Z,63.00
2022-11-29T15:47:05.306Z,59.85
2022-11-29T15:49:32.228Z,65.30
2022-11-29T15:51:59.116Z,61.72
2022-11-29T15:54:26.041Z,60.95
2022-11-29T15:56:52.928Z,57.90
2022-11-29T15:59:19.812Z,62.42
2022-11-29T16:01:46.759Z,61.00
2022-11-29T16:04:13.686Z,57.80
2022-11-29T16:06:40.601Z,61.15
2022-11-29T16:09:07.499Z,59.90
2022-11-29T16:11:34.442Z,55.38
2022-11-29T16:14:04.412Z,60.67
2022-11-29T16:16:31.502Z,57.35
2022-11-29T16:18:58.528Z,60.30
2022-11-29T16:21:27.405Z,61.13
2022-11-29T16:23:54.389Z,63.90
2022-11-29T16:26:23.081Z,60.72
2022-11-29T16:28:50.060Z,64.45
2022-11-29T16:31:18.114Z,60.42
2022-11-29T16:33:45.232Z,60.58
2022-11-29T16:36:12.194Z,56.60
2022-11-29T16:38:39.100Z,60.08
2022-11-29T16:41:06.024Z,63.95
2022-11-29T16:43:32.941Z,62.15
2022-11-29T16:46:00.021Z,57.60
2022-11-29T16:48:27.242Z,63.17
2022-11-29T16:50:54.135Z,59.88
2022-11-29T16:53:21.132Z,61.85
2022-11-29T16:55:48.053Z,62.20
2022-11-29T16:58:15.128Z,53.83
2022-11-29T17:00:42.048Z,61.83
2022-11-29T17:03:08.970Z,58.78
2022-11-29T17:05:40.247Z,55.33
2022-11-29T17:08:10.098Z,59.65
2022-11-29T17:10:37.061Z,52.60
2022-11-29T17:13:04.061Z,53.15
2022-11-29T17:15:30.940Z,58.53
2022-11-29T17:17:57.932Z,55.22
2022-11-29T17:20:24.834Z,59.90
2022-11-29T17:22:51.761Z,54.15
2022-11-29T17:25:18.673Z,56.45
2022-11-29T17:27:45.573Z,57.40
2022-11-29T17:30:12.486Z,57.67
2022-11-29T17:32:39.624Z,55.10
2022-11-29T17:35:06.521Z,52.67
2022-11-29T17:37:33.456Z,55.60
2022-11-29T17:40:00.351Z,52.33
2022-11-29T17:42:27.250Z,57.08
2022-11-29T17:44:54.138Z,49.55
2022-11-29T17:47:21.031Z,53.70
2022-11-29T17:49:48.149Z,56.15
2022-11-29T17:52:15.331Z,54.15
2022-11-29T17:54:42.216Z,54.53
2022-11-29T17:57:09.120Z,52.95
2022-11-29T17:59:36.060Z,51.83
2022-11-29T18:02:03.019Z,56.53
2022-11-29T18:04:29.999Z,56.40
2022-11-29T18:06:56.900Z,57.97
2022-11-29T18:09:23.812Z,51.25
2022-11-29T18:11:50.915Z,50.15
2022-11-29T18:14:17.896Z,54.05
2022-11-29T18:16:44.951Z,59.65
2022-11-29T18:19:11.980Z,50.03
2022-11-29T18:21:38.895Z,54.42
2022-11-29T18:24:05.772Z,56.00
2022-11-29T18:26:32.686Z,48.83
2022-11-29T18:28:59.596Z,53.35
2022-11-29T18:31:28.101Z,56.10
2022-11-29T18:33:55.241Z,57.17
2022-11-29T18:36:22.140Z,53.80
2022-11-29T18:38:49.067Z,57.03
2022-11-29T18:41:15.949Z,53.40
2022-11-29T18:43:42.874Z,54.88
2022-11-29T18:46:09.809Z,59.88
2022-11-29T18:48:36.804Z,54.47
2022-11-29T18:51:03.693Z,56.30
2022-11-29T18:53:30.613Z,53.85
2022-11-29T18:55:57.527Z,50.08
2022-11-29T18:58:24.441Z,52.25
2022-11-29T19:00:51.363Z,53.78
2022-11-29T19:03:18.301Z,50.88
2022-11-29T19:05:45.184Z,53.15
2022-11-29T19:08:12.096Z,54.45
2022-11-29T19:10:39.076Z,51.20
2022-11-29T19:13:06.157Z,51.60
2022-11-29T19:15:33.138Z,57.30
2022-11-29T19:18:00.087Z,58.80
2022-11-29T19:20:26.982Z,55.08
2022-11-29T19:23:00.163Z,54.10
2022-11-29T19:25:27.431Z,51.85
2022-11-29T19:27:54.319Z,52.90
2022-11-29T19:30:21.319Z,52.42
2022-11-29T19:32:48.252Z,53.85
2022-11-29T19:35:15.164Z,52.78
2022-11-29T19:37:42.107Z,50.63
2022-11-29T19:40:09.031Z,57.10
2022-11-29T19:42:35.949Z,52.95
2022-11-29T19:45:17.182Z,52.72
2022-11-29T19:47:44.807Z,54.38
2022-11-29T19:50:12.884Z,56.08
2022-11-29T19:52:39.887Z,56.85
2022-11-29T19:55:06.898Z,53.30
2022-11-29T19:57:33.830Z,53.65
2022-11-29T20:03:02.477Z,53.25
2022-11-29T20:47:44.792Z,62.65
2022-11-29T21:04:26.566Z,63.45
2022-11-29T21:07:01.682Z,60.47
2022-11-29T21:20:44.603Z,56.67
2022-11-29T21:23:11.645Z,60.65
2022-11-29T21:25:47.189Z,57.72
2022-11-29T21:28:29.845Z,62.67
2022-11-29T21:31:00.414Z,63.85
2022-11-29T21:41:41.567Z,68.93
2022-11-29T21:44:30.159Z,63.92
2022-11-29T21:46:57.414Z,65.22
2022-11-29T21:49:24.523Z,64.22
2022-11-29T22:27:49.578Z,69.60
2022-11-29T22:38:24.780Z,64.53
2022-11-29T22:41:04.280Z,72.03
2022-11-29T22:43:37.695Z,69.15
2022-11-29T22:46:10.356Z,65.00
2022-11-29T22:49:04.611Z,65.70
2022-11-29T22:51:31.518Z,68.15
2022-11-29T22:53:58.462Z,65.35
2022-11-29T22:56:27.554Z,69.85
2022-11-29T22:58:54.512Z,66.57
2022-11-29T23:01:22.609Z,68.80
2022-11-29T23:06:36.531Z,70.93
2022-11-29T23:09:03.470Z,74.90
2022-11-29T23:11:30.358Z,69.88
2022-11-29T23:13:57.266Z,68.82
2022-11-29T23:16:24.260Z,70.70
2022-11-29T23:18:51.212Z,69.03
2022-11-29T23:21:21.392Z,71.57
2022-11-29T23:23:52.941Z,68.97
2022-11-29T23:26:22.923Z,69.93
2022-11-29T23:28:49.823Z,65.50
2022-11-29T23:31:16.779Z,70.28
2022-11-29T23:33:43.731Z,71.97
2022-11-29T23:36:10.658Z,68.18
2022-11-29T23:38:37.588Z,72.38
2022-11-29T23:41:04.485Z,67.57
2022-11-29T23:43:31.381Z,73.22
2022-11-29T23:45:58.360Z,70.25
2022-11-29T23:48:25.282Z,68.53
2022-11-29T23:50:52.248Z,69.18
2022-11-29T23:53:19.201Z,69.00
2022-11-29T23:55:46.117Z,70.13
2022-11-29T23:58:13.007Z,67.60
